Time;durP1;ratioP1;P1;durP2;ratioP2;P2;SDS_P1;SDS_P2;PMS_P1;PMS_P2;Temp;Humidity;BMP_temperature;BMP_pressure;BME280_temperature;BME280_humidity;BME280_pressure;Samples;Min_cycle;Max_cycle;Signal;HPM_P1;HPM_P2
2022/04/04 00:01:58;;;;;;;;;24.33;17.67;;;;;;;;5077593;28;45497;-69
2022/04/04 00:04:23;;;;;;;;;18.00;17.00;;;;;;;;5077389;28;45375;-69
2022/04/04 00:06:48;;;;;;;;;26.00;19.33;;;;;;;;5077276;28;45285;-70
2022/04/04 00:09:14;;;;;;;;;28.00;18.00;;;;;;;;5077654;28;45289;-69
2022/04/04 00:11:39;;;;;;;;;20.67;18.00;;;;;;;;5077082;28;45497;-70
2022/04/04 00:14:04;;;;;;;;;24.67;19.00;;;;;;;;5077295;28;45377;-69
2022/04/04 00:16:32;;;;;;;;;22.33;18.00;;;;;;;;5077252;28;45400;-70
2022/04/04 00:18:57;;;;;;;;;17.67;17.33;;;;;;;;5077994;28;45426;-70
2022/04/04 00:21:22;;;;;;;;;21.33;19.67;;;;;;;;5077388;28;45384;-70
2022/04/04 00:23:48;;;;;;;;;19.33;17.00;;;;;;;;5077589;28;45509;-70
2022/04/04 00:26:13;;;;;;;;;23.33;18.67;;;;;;;;5076746;28;45517;-70
2022/04/04 00:28:38;;;;;;;;;20.00;14.00;;;;;;;;5077621;28;45426;-70
2022/04/04 00:31:03;;;;;;;;;14.67;14.67;;;;;;;;5077227;28;46168;-70
2022/04/04 00:33:29;;;;;;;;;13.33;12.33;;;;;;;;5077303;28;45457;-70
2022/04/04 00:35:54;;;;;;;;;16.33;13.33;;;;;;;;5077603;28;45359;-70
2022/04/04 00:38:19;;;;;;;;;18.67;16.67;;;;;;;;5077414;28;45478;-70
2022/04/04 00:40:44;;;;;;;;;17.00;14.67;;;;;;;;5076583;28;45705;-72
2022/04/04 00:43:10;;;;;;;;;16.00;16.00;;;;;;;;5077472;28;45340;-70
2022/04/04 00:45:35;;;;;;;;;15.00;11.00;;;;;;;;5077507;28;45264;-70
2022/04/04 00:48:00;;;;;;;;;14.00;12.33;;;;;;;;5077827;28;45348;-70
2022/04/04 00:50:26;;;;;;;;;17.67;12.67;;;;;;;;5058722;28;46285;-70
2022/04/04 00:52:51;;;;;;;;;12.67;11.67;;;;;;;;5077113;28;45442;-70
2022/04/04 00:55:17;;;;;;;;;18.00;14.67;;;;;;;;5077111;28;45279;-70
2022/04/04 00:57:42;;;;;;;;;17.67;13.00;;;;;;;;5077339;28;45312;-70
2022/04/04 01:00:11;;;;;;;;;13.33;13.00;;;;;;;;5077393;28;46066;-70
2022/04/04 01:02:37;;;;;;;;;18.33;13.00;;;;;;;;5076380;28;45566;-70
2022/04/04 01:05:04;;;;;;;;;16.00;14.33;;;;;;;;5077090;28;45327;-70
2022/04/04 01:07:29;;;;;;;;;13.33;12.00;;;;;;;;5077428;28;45382;-71
2022/04/04 01:09:54;;;;;;;;;19.67;19.00;;;;;;;;5076957;28;45433;-70
2022/04/04 01:12:22;;;;;;;;;17.00;13.00;;;;;;;;5077078;28;45434;-71
2022/04/04 01:14:48;;;;;;;;;19.67;16.00;;;;;;;;5077019;28;45275;-70
2022/04/04 01:17:17;;;;;;;;;17.00;13.67;;;;;;;;5076620;28;45477;-71
2022/04/04 01:19:43;;;;;;;;;16.67;13.67;;;;;;;;5076926;28;46226;-70
2022/04/04 01:22:09;;;;;;;;;15.67;13.67;;;;;;;;5076715;28;45307;-70
2022/04/04 01:24:37;;;;;;;;;21.33;17.00;;;;;;;;5077178;28;45302;-70
2022/04/04 01:27:02;;;;;;;;;16.33;16.00;;;;;;;;5076888;28;45438;-70
2022/04/04 01:29:27;;;;;;;;;17.33;16.00;;;;;;;;5078351;28;46809;-70
2022/04/04 01:31:52;;;;;;;;;25.67;17.00;;;;;;;;5080317;28;45489;-70
2022/04/04 01:34:18;;;;;;;;;18.00;16.00;;;;;;;;5080514;28;45248;-71
2022/04/04 01:36:43;;;;;;;;;14.67;14.00;;;;;;;;5080777;28;45488;-71
2022/04/04 01:39:09;;;;;;;;;17.33;14.67;;;;;;;;5080023;28;45594;-71
2022/04/04 01:41:34;;;;;;;;;20.00;17.00;;;;;;;;5092064;27;45544;-70
2022/04/04 01:43:59;;;;;;;;;13.00;13.00;;;;;;;;5100687;27;45234;-70
2022/04/04 01:46:25;;;;;;;;;15.00;12.00;;;;;;;;5101069;27;45468;-70
2022/04/04 01:48:51;;;;;;;;;17.00;14.67;;;;;;;;5084330;27;46074;-71
2022/04/04 01:51:17;;;;;;;;;16.67;14.33;;;;;;;;5079509;28;45490;-70
2022/04/04 01:53:42;;;;;;;;;14.33;14.00;;;;;;;;5061711;28;45358;-70
2022/04/04 01:56:08;;;;;;;;;12.67;12.67;;;;;;;;5060193;28;45364;-70
2022/04/04 01:58:34;;;;;;;;;16.67;13.00;;;;;;;;5059528;28;45301;-70
2022/04/04 02:01:01;;;;;;;;;15.00;12.33;;;;;;;;5059761;28;45380;-70
2022/04/04 02:03:28;;;;;;;;;15.00;12.00;;;;;;;;5059830;28;45227;-70
2022/04/04 02:05:53;;;;;;;;;18.67;15.00;;;;;;;;5059715;28;45227;-70
2022/04/04 02:08:18;;;;;;;;;13.67;12.67;;;;;;;;5059191;28;45507;-70
2022/04/04 02:10:44;;;;;;;;;14.00;13.00;;;;;;;;5059554;28;45357;-71
2022/04/04 02:13:09;;;;;;;;;15.33;15.33;;;;;;;;5059526;28;45283;-71
2022/04/04 02:15:35;;;;;;;;;11.67;10.67;;;;;;;;5059887;28;45238;-71
2022/04/04 02:18:00;;;;;;;;;12.67;12.00;;;;;;;;5059420;28;46552;-71
2022/04/04 02:20:25;;;;;;;;;16.00;12.33;;;;;;;;5059339;28;45314;-71
2022/04/04 02:22:50;;;;;;;;;18.67;11.00;;;;;;;;5059283;28;45586;-71
2022/04/04 02:25:15;;;;;;;;;11.33;11.33;;;;;;;;5059801;28;45432;-70
2022/04/04 02:27:41;;;;;;;;;15.33;15.00;;;;;;;;5059092;28;46591;-70
2022/04/04 02:30:06;;;;;;;;;9.33;7.67;;;;;;;;5059347;28;45427;-70
2022/04/04 02:32:32;;;;;;;;;10.33;7.00;;;;;;;;5059043;28;45258;-69
2022/04/04 02:34:57;;;;;;;;;13.00;11.33;;;;;;;;5059296;28;45348;-70
2022/04/04 02:37:22;;;;;;;;;14.33;13.00;;;;;;;;5059341;28;45324;-70
2022/04/04 02:39:47;;;;;;;;;10.33;10.33;;;;;;;;5058637;28;45478;-69
2022/04/04 02:42:13;;;;;;;;;11.00;11.00;;;;;;;;5059116;28;45492;-69
2022/04/04 02:44:38;;;;;;;;;12.33;10.33;;;;;;;;5059255;28;45376;-70
2022/04/04 02:47:03;;;;;;;;;14.33;12.00;;;;;;;;5058977;28;46545;-70
2022/04/04 02:49:29;;;;;;;;;13.00;11.33;;;;;;;;5058959;28;45297;-70
2022/04/04 02:51:57;;;;;;;;;16.67;9.00;;;;;;;;5058686;28;46021;-70
2022/04/04 02:54:22;;;;;;;;;15.00;9.00;;;;;;;;5058863;28;45340;-70
2022/04/04 02:56:48;;;;;;;;;11.67;9.67;;;;;;;;5058496;28;45355;-70
2022/04/04 02:59:13;;;;;;;;;7.67;7.67;;;;;;;;5058456;28;45339;-69
2022/04/04 03:01:38;;;;;;;;;10.67;9.67;;;;;;;;5058978;28;45263;-70
2022/04/04 03:04:04;;;;;;;;;11.33;9.33;;;;;;;;5058976;28;45224;-70
2022/04/04 03:06:29;;;;;;;;;12.00;12.00;;;;;;;;5058530;28;47487;-70
2022/04/04 03:08:54;;;;;;;;;13.67;11.67;;;;;;;;5058517;28;45175;-69
2022/04/04 03:11:20;;;;;;;;;10.67;6.00;;;;;;;;5058434;28;45582;-69
2022/04/04 03:13:45;;;;;;;;;14.67;10.33;;;;;;;;5058711;28;45541;-69
2022/04/04 03:16:10;;;;;;;;;13.00;11.67;;;;;;;;5058214;28;45432;-69
2022/04/04 03:18:36;;;;;;;;;11.00;11.00;;;;;;;;5058389;28;45478;-70
2022/04/04 03:21:03;;;;;;;;;13.67;10.00;;;;;;;;5058597;28;45317;-70
2022/04/04 03:23:29;;;;;;;;;12.00;12.00;;;;;;;;5058635;28;45344;-72
2022/04/04 03:25:54;;;;;;;;;15.00;14.67;;;;;;;;5056499;28;45744;-71
2022/04/04 03:28:19;;;;;;;;;16.67;16.00;;;;;;;;5058014;28;45366;-70
2022/04/04 03:30:45;;;;;;;;;15.33;12.33;;;;;;;;5058006;28;45518;-70
2022/04/04 03:33:10;;;;;;;;;10.67;10.67;;;;;;;;5058498;28;45467;-70
2022/04/04 03:35:36;;;;;;;;;15.33;15.00;;;;;;;;5058012;28;45637;-70
2022/04/04 03:38:03;;;;;;;;;12.67;12.67;;;;;;;;5058282;28;45336;-70
2022/04/04 03:40:28;;;;;;;;;12.00;9.67;;;;;;;;5058024;28;45229;-70
2022/04/04 03:42:54;;;;;;;;;16.67;13.00;;;;;;;;5058151;28;45459;-71
2022/04/04 03:45:20;;;;;;;;;12.00;11.33;;;;;;;;5057660;28;46200;-70
2022/04/04 03:47:46;;;;;;;;;13.67;12.67;;;;;;;;5058071;28;45309;-70
2022/04/04 03:50:12;;;;;;;;;20.00;14.00;;;;;;;;5057820;28;45423;-70
2022/04/04 03:52:38;;;;;;;;;19.00;14.33;;;;;;;;5057238;28;45305;-70
2022/04/04 03:55:03;;;;;;;;;23.67;13.67;;;;;;;;5057727;28;45425;-70
2022/04/04 03:57:29;;;;;;;;;17.67;12.33;;;;;;;;5057658;28;45369;-70
2022/04/04 03:59:54;;;;;;;;;17.67;15.67;;;;;;;;5057543;28;45382;-70
2022/04/04 04:02:19;;;;;;;;;22.33;14.00;;;;;;;;5073301;28;45226;-71
2022/04/04 04:04:45;;;;;;;;;18.67;14.00;;;;;;;;5066805;28;45269;-70
2022/04/04 04:07:14;;;;;;;;;13.33;12.67;;;;;;;;5057640;28;45444;-69
2022/04/04 04:09:39;;;;;;;;;13.00;12.67;;;;;;;;5057753;28;45455;-71
2022/04/04 04:12:05;;;;;;;;;12.67;12.67;;;;;;;;5057888;28;45430;-70
2022/04/04 04:14:30;;;;;;;;;13.67;12.00;;;;;;;;5057308;28;45424;-70
2022/04/04 04:16:55;;;;;;;;;14.00;13.00;;;;;;;;5057657;28;45345;-69
2022/04/04 04:22:04;;;;;;;;;14.00;11.33;;;;;;;;5057764;28;45400;-70
2022/04/04 04:24:29;;;;;;;;;15.00;14.00;;;;;;;;5057312;28;46022;-69
2022/04/04 04:26:55;;;;;;;;;17.67;12.33;;;;;;;;5057185;28;45470;-69
2022/04/04 04:29:20;;;;;;;;;14.00;13.00;;;;;;;;5057575;28;45331;-69
2022/04/04 04:31:46;;;;;;;;;21.00;13.00;;;;;;;;5057481;28;45342;-70
2022/04/04 04:34:11;;;;;;;;;19.00;16.33;;;;;;;;5057481;28;46009;-70
2022/04/04 04:36:39;;;;;;;;;17.00;15.33;;;;;;;;5038991;28;45465;-71
2022/04/04 04:39:05;;;;;;;;;15.00;13.00;;;;;;;;5057411;28;45370;-70
2022/04/04 04:41:30;;;;;;;;;17.00;14.67;;;;;;;;5057330;28;45230;-70
2022/04/04 04:43:55;;;;;;;;;9.33;8.67;;;;;;;;5056789;28;45706;-70
2022/04/04 04:46:20;;;;;;;;;19.33;13.67;;;;;;;;5056760;28;45386;-71
2022/04/04 04:48:45;;;;;;;;;17.67;13.67;;;;;;;;5056882;28;45365;-71
2022/04/04 04:51:11;;;;;;;;;16.33;16.33;;;;;;;;5057898;28;45345;-71
2022/04/04 04:53:37;;;;;;;;;17.67;15.33;;;;;;;;5056669;28;46926;-71
2022/04/04 04:56:02;;;;;;;;;20.00;18.67;;;;;;;;5056573;28;45447;-71
2022/04/04 04:58:27;;;;;;;;;13.00;13.00;;;;;;;;5056409;28;45643;-70
2022/04/04 05:00:53;;;;;;;;;15.67;15.67;;;;;;;;5057112;28;45290;-70
2022/04/04 05:03:24;;;;;;;;;17.33;14.33;;;;;;;;5057199;28;45538;-68
2022/04/04 05:05:49;;;;;;;;;24.33;15.67;;;;;;;;5060207;28;45529;-68
2022/04/04 05:08:15;;;;;;;;;58.33;38.00;;;;;;;;5060335;28;45340;-68
2022/04/04 05:10:40;;;;;;;;;26.67;22.00;;;;;;;;5060538;28;45445;-68
2022/04/04 05:13:06;;;;;;;;;14.33;14.33;;;;;;;;5060377;28;45554;-68
2022/04/04 05:15:31;;;;;;;;;19.67;17.00;;;;;;;;5060284;28;45380;-69
2022/04/04 05:17:56;;;;;;;;;18.67;18.33;;;;;;;;5060361;28;45558;-68
2022/04/04 05:20:22;;;;;;;;;19.33;17.33;;;;;;;;5060533;28;45349;-68
2022/04/04 05:22:47;;;;;;;;;24.33;21.67;;;;;;;;5059367;28;46277;-68
2022/04/04 05:25:13;;;;;;;;;21.33;18.33;;;;;;;;5060112;28;45455;-69
2022/04/04 05:27:39;;;;;;;;;23.33;14.67;;;;;;;;5060243;28;45399;-68
2022/04/04 05:30:04;;;;;;;;;17.67;17.67;;;;;;;;5060051;28;45404;-68
2022/04/04 05:32:29;;;;;;;;;20.33;16.33;;;;;;;;5060402;28;46508;-68
2022/04/04 05:34:55;;;;;;;;;24.67;17.67;;;;;;;;5059437;28;45226;-68
2022/04/04 05:37:20;;;;;;;;;25.00;17.00;;;;;;;;5060109;28;45281;-67
2022/04/04 05:39:45;;;;;;;;;23.00;17.33;;;;;;;;5060289;28;45411;-68
2022/04/04 05:42:10;;;;;;;;;20.00;20.00;;;;;;;;5059708;28;45265;-68
2022/04/04 05:44:35;;;;;;;;;19.33;17.67;;;;;;;;5059683;28;45471;-67
2022/04/04 05:47:01;;;;;;;;;19.33;14.67;;;;;;;;5059377;28;46348;-67
2022/04/04 05:49:26;;;;;;;;;20.00;18.67;;;;;;;;5060359;28;45216;-67
2022/04/04 05:51:51;;;;;;;;;23.00;17.67;;;;;;;;5059549;28;45561;-67
2022/04/04 05:54:17;;;;;;;;;18.67;15.67;;;;;;;;5059475;28;45333;-67
2022/04/04 05:56:44;;;;;;;;;22.67;16.67;;;;;;;;5059883;28;45296;-67
2022/04/04 05:59:10;;;;;;;;;18.33;17.00;;;;;;;;5059293;28;45432;-67
2022/04/04 06:01:35;;;;;;;;;20.67;18.67;;;;;;;;5045614;28;45419;-68
2022/04/04 06:04:00;;;;;;;;;15.67;14.67;;;;;;;;5048063;28;45388;-67
2022/04/04 06:06:25;;;;;;;;;26.67;17.67;;;;;;;;5039778;28;45526;-67
2022/04/04 06:08:51;;;;;;;;;25.67;20.00;;;;;;;;5039633;28;45488;-67
2022/04/04 06:11:16;;;;;;;;;26.33;22.33;;;;;;;;5039092;28;45508;-67
2022/04/04 06:13:42;;;;;;;;;21.00;16.67;;;;;;;;5045776;28;45313;-67
2022/04/04 06:16:09;;;;;;;;;17.67;16.33;;;;;;;;5059137;28;45372;-67
2022/04/04 06:18:35;;;;;;;;;19.33;18.00;;;;;;;;5041515;28;45447;-69
2022/04/04 06:21:02;;;;;;;;;18.67;16.67;;;;;;;;5057819;28;46083;-67
2022/04/04 06:23:28;;;;;;;;;20.67;14.33;;;;;;;;5041302;28;45542;-68
2022/04/04 06:25:53;;;;;;;;;18.00;15.33;;;;;;;;5055042;28;47142;-68
2022/04/04 06:28:18;;;;;;;;;25.00;16.00;;;;;;;;5059401;28;45316;-67
2022/04/04 06:30:44;;;;;;;;;30.33;22.00;;;;;;;;5058783;28;45455;-67
2022/04/04 06:33:09;;;;;;;;;22.33;20.00;;;;;;;;5059637;28;45445;-67
2022/04/04 06:35:35;;;;;;;;;19.33;17.67;;;;;;;;5059862;28;45452;-67
2022/04/04 06:38:01;;;;;;;;;20.33;15.67;;;;;;;;5062367;28;45463;-67
2022/04/04 06:40:27;;;;;;;;;18.67;16.67;;;;;;;;5058531;28;45372;-67
2022/04/04 06:42:55;;;;;;;;;22.00;19.00;;;;;;;;5058888;28;45242;-67
2022/04/04 06:45:20;;;;;;;;;13.00;13.00;;;;;;;;5058855;28;45515;-67
2022/04/04 06:47:46;;;;;;;;;21.00;18.67;;;;;;;;5059609;28;45552;-68
2022/04/04 06:50:13;;;;;;;;;19.00;18.33;;;;;;;;5058687;28;45364;-67
2022/04/04 06:52:39;;;;;;;;;21.00;19.00;;;;;;;;5067658;27;45376;-67
2022/04/04 06:55:05;;;;;;;;;19.67;15.00;;;;;;;;5078972;28;45360;-67
2022/04/04 06:57:30;;;;;;;;;23.33;15.00;;;;;;;;5079282;28;45649;-67
2022/04/04 06:59:55;;;;;;;;;18.67;15.00;;;;;;;;5078568;28;46204;-68
2022/04/04 07:02:20;;;;;;;;;17.00;15.33;;;;;;;;5078545;27;45403;-67
2022/04/04 07:04:46;;;;;;;;;22.00;19.67;;;;;;;;5090636;27;45466;-67
2022/04/04 07:07:11;;;;;;;;;28.67;18.67;;;;;;;;5094618;27;45592;-67
2022/04/04 07:09:36;;;;;;;;;17.00;17.00;;;;;;;;5079592;27;46234;-67
2022/04/04 07:12:03;;;;;;;;;22.00;17.33;;;;;;;;5082222;27;45445;-67
2022/04/04 07:14:29;;;;;;;;;20.00;16.33;;;;;;;;5079220;28;45450;-67
2022/04/04 07:16:54;;;;;;;;;19.00;17.33;;;;;;;;5078796;28;45397;-67
2022/04/04 07:19:22;;;;;;;;;17.33;16.33;;;;;;;;5078271;28;45760;-67
2022/04/04 07:21:47;;;;;;;;;20.33;20.00;;;;;;;;5078760;28;45324;-67
2022/04/04 07:24:12;;;;;;;;;18.00;17.00;;;;;;;;5077769;28;45466;-67
2022/04/04 07:26:37;;;;;;;;;19.67;17.33;;;;;;;;5085921;27;45467;-67
2022/04/04 07:29:03;;;;;;;;;21.33;17.00;;;;;;;;5099046;27;46374;-67
2022/04/04 07:31:29;;;;;;;;;17.33;16.33;;;;;;;;5098656;27;45759;-67
2022/04/04 07:33:55;;;;;;;;;17.33;12.00;;;;;;;;5096579;27;45383;-67
2022/04/04 07:36:20;;;;;;;;;19.33;16.00;;;;;;;;5078740;28;45439;-67
2022/04/04 07:38:45;;;;;;;;;19.00;15.67;;;;;;;;5078046;27;45288;-68
2022/04/04 07:41:10;;;;;;;;;16.00;16.00;;;;;;;;5077728;27;45502;-67
2022/04/04 07:43:35;;;;;;;;;19.00;16.00;;;;;;;;5078776;28;45292;-67
2022/04/04 07:46:01;;;;;;;;;18.00;18.00;;;;;;;;5085821;27;45737;-67
2022/04/04 07:48:26;;;;;;;;;17.00;15.67;;;;;;;;5080435;27;46057;-67
2022/04/04 07:50:51;;;;;;;;;20.00;18.33;;;;;;;;5099019;27;45494;-67
2022/04/04 07:53:17;;;;;;;;;23.33;15.00;;;;;;;;5092843;27;45435;-67
2022/04/04 07:55:42;;;;;;;;;15.00;13.67;;;;;;;;5078752;28;45406;-67
2022/04/04 07:58:08;;;;;;;;;20.67;18.00;;;;;;;;5078214;28;46346;-67
2022/04/04 08:00:33;;;;;;;;;21.33;16.33;;;;;;;;5078167;28;45405;-67
2022/04/04 08:02:58;;;;;;;;;23.00;17.67;;;;;;;;5078519;28;45411;-67
2022/04/04 08:05:26;;;;;;;;;17.00;15.00;;;;;;;;5078528;28;45395;-67
2022/04/04 08:07:52;;;;;;;;;17.33;17.00;;;;;;;;5081232;27;47083;-68
2022/04/04 08:10:17;;;;;;;;;12.33;9.00;;;;;;;;5098400;27;45314;-67
2022/04/04 08:12:42;;;;;;;;;16.00;15.00;;;;;;;;5098402;27;45416;-67
2022/04/04 08:15:09;;;;;;;;;14.00;12.00;;;;;;;;5081762;27;45309;-67
2022/04/04 08:17:34;;;;;;;;;12.00;12.00;;;;;;;;5077827;28;45452;-67
2022/04/04 08:19:59;;;;;;;;;14.33;12.67;;;;;;;;5078051;28;45290;-67
2022/04/04 08:22:25;;;;;;;;;19.33;16.00;;;;;;;;5077921;28;45312;-67
2022/04/04 08:24:50;;;;;;;;;13.67;13.67;;;;;;;;5076780;28;45328;-67
2022/04/04 08:27:16;;;;;;;;;15.00;14.67;;;;;;;;5077804;28;46522;-67
2022/04/04 08:29:42;;;;;;;;;16.67;12.33;;;;;;;;5077695;28;45352;-67
2022/04/04 08:32:07;;;;;;;;;15.33;15.00;;;;;;;;5077998;28;45271;-67
2022/04/04 08:34:32;;;;;;;;;16.33;14.33;;;;;;;;5078146;28;45375;-67
2022/04/04 08:36:58;;;;;;;;;18.00;13.00;;;;;;;;5076898;28;45588;-68
2022/04/04 08:39:23;;;;;;;;;18.00;13.33;;;;;;;;5088446;27;45436;-67
2022/04/04 08:41:49;;;;;;;;;12.00;12.00;;;;;;;;5079629;27;45193;-67
2022/04/04 08:44:15;;;;;;;;;14.33;12.00;;;;;;;;5078049;28;45313;-67
2022/04/04 08:46:41;;;;;;;;;18.00;12.67;;;;;;;;5077373;28;45344;-67
2022/04/04 08:49:06;;;;;;;;;15.67;14.00;;;;;;;;5077401;28;45408;-67
2022/04/04 08:51:32;;;;;;;;;6.33;4.00;;;;;;;;5077842;28;45471;-67
2022/04/04 08:53:57;;;;;;;;;19.00;16.00;;;;;;;;5077528;28;45360;-67
2022/04/04 08:56:23;;;;;;;;;19.33;16.67;;;;;;;;5077085;28;46435;-67
2022/04/04 08:58:49;;;;;;;;;12.00;11.00;;;;;;;;5077547;28;45351;-67
2022/04/04 09:01:14;;;;;;;;;18.33;13.00;;;;;;;;5078269;27;45452;-67
2022/04/04 09:03:39;;;;;;;;;19.00;16.33;;;;;;;;5077087;28;45399;-68
2022/04/04 09:06:05;;;;;;;;;15.33;11.00;;;;;;;;5076533;28;46172;-67
2022/04/04 09:08:42;;;;;;;;;13.00;11.33;;;;;;;;5077408;28;45381;-67
2022/04/04 09:11:07;;;;;;;;;10.33;10.00;;;;;;;;5077646;28;45207;-67
2022/04/04 09:13:34;;;;;;;;;13.67;13.67;;;;;;;;5076903;28;45525;-67
2022/04/04 09:16:03;;;;;;;;;16.67;13.67;;;;;;;;5076701;28;45641;-68
2022/04/04 09:18:41;;;;;;;;;11.33;10.00;;;;;;;;5076992;28;45406;-67
2022/04/04 09:21:07;;;;;;;;;13.33;13.33;;;;;;;;5076898;28;45351;-67
2022/04/04 09:23:33;;;;;;;;;6.67;6.00;;;;;;;;5076798;28;45394;-67
2022/04/04 09:26:00;;;;;;;;;15.67;13.00;;;;;;;;5076889;28;46338;-67
2022/04/04 09:28:26;;;;;;;;;17.00;14.67;;;;;;;;5076530;28;45470;-67
2022/04/04 09:31:07;;;;;;;;;17.33;15.00;;;;;;;;5077055;28;45345;-67
2022/04/04 09:33:38;;;;;;;;;10.33;9.67;;;;;;;;5077364;28;45408;-67
2022/04/04 09:36:04;;;;;;;;;15.33;13.00;;;;;;;;5076887;28;46219;-67
2022/04/04 09:38:33;;;;;;;;;11.33;11.33;;;;;;;;5076942;28;45341;-67
2022/04/04 09:41:03;;;;;;;;;12.67;12.00;;;;;;;;5076983;28;45314;-67
2022/04/04 09:43:48;;;;;;;;;16.00;14.00;;;;;;;;5077274;28;45370;-67
2022/04/04 09:46:13;;;;;;;;;8.33;8.00;;;;;;;;5076225;28;45699;-67
2022/04/04 09:48:58;;;;;;;;;14.00;11.00;;;;;;;;5076873;28;45360;-67
2022/04/04 09:51:33;;;;;;;;;11.67;10.33;;;;;;;;5080363;28;45367;-67
2022/04/04 09:54:03;;;;;;;;;11.00;11.00;;;;;;;;5079913;28;45919;-67
2022/04/04 09:56:28;;;;;;;;;10.00;10.00;;;;;;;;5080189;28;47242;-67
2022/04/04 09:58:54;;;;;;;;;12.00;11.00;;;;;;;;5086644;27;45454;-68
2022/04/04 10:01:19;;;;;;;;;13.00;9.67;;;;;;;;5079491;28;45446;-67
2022/04/04 10:03:45;;;;;;;;;11.00;11.00;;;;;;;;5079327;28;45369;-67
2022/04/04 10:06:12;;;;;;;;;10.33;10.00;;;;;;;;5091803;27;47034;-67
2022/04/04 10:08:38;;;;;;;;;10.67;7.67;;;;;;;;5100569;27;45374;-68
2022/04/04 10:11:05;;;;;;;;;14.00;12.67;;;;;;;;5081518;27;45344;-67
2022/04/04 10:13:31;;;;;;;;;15.67;14.00;;;;;;;;5080143;28;45303;-67
2022/04/04 10:15:56;;;;;;;;;13.67;13.00;;;;;;;;5079853;28;45294;-67
2022/04/04 10:18:21;;;;;;;;;12.67;11.00;;;;;;;;5080021;28;45371;-67
2022/04/04 10:20:53;;;;;;;;;11.00;11.00;;;;;;;;5080065;28;45383;-68
2022/04/04 10:23:18;;;;;;;;;19.67;17.00;;;;;;;;5099504;27;45381;-67
2022/04/04 10:25:45;;;;;;;;;16.00;16.00;;;;;;;;5100199;27;45669;-67
2022/04/04 10:28:24;;;;;;;;;13.67;12.33;;;;;;;;5100181;27;45399;-67
2022/04/04 10:30:49;;;;;;;;;11.33;10.00;;;;;;;;5096943;27;45274;-67
2022/04/04 10:33:19;;;;;;;;;17.00;14.00;;;;;;;;5079809;28;45185;-67
2022/04/04 10:35:58;;;;;;;;;20.00;17.00;;;;;;;;5079005;28;45502;-67
2022/04/04 10:38:28;;;;;;;;;14.00;14.00;;;;;;;;5080949;27;45245;-67
2022/04/04 10:40:53;;;;;;;;;11.00;11.00;;;;;;;;5081564;27;45316;-67
2022/04/04 10:43:19;;;;;;;;;15.67;14.33;;;;;;;;5099655;27;45463;-67
2022/04/04 10:45:58;;;;;;;;;11.00;9.67;;;;;;;;5079492;27;46163;-67
2022/04/04 10:48:28;;;;;;;;;18.67;11.00;;;;;;;;5078850;28;45313;-67
2022/04/04 10:50:54;;;;;;;;;13.00;11.00;;;;;;;;5078074;28;45340;-67
2022/04/04 10:53:39;;;;;;;;;13.00;13.00;;;;;;;;5063836;28;45506;-67
2022/04/04 10:56:05;;;;;;;;;13.00;11.00;;;;;;;;5057799;28;46291;-67
2022/04/04 10:58:30;;;;;;;;;13.00;11.00;;;;;;;;5063956;28;45453;-67
2022/04/04 11:00:59;;;;;;;;;17.00;11.00;;;;;;;;5059115;28;45521;-67
2022/04/04 11:03:30;;;;;;;;;18.00;17.00;;;;;;;;5078880;28;45418;-67
2022/04/04 11:09:04;;;;;;;;;12.67;10.67;;;;;;;;5057499;28;45436;-67
2022/04/04 11:11:48;;;;;;;;;11.00;11.00;;;;;;;;5015944;28;45421;-67
2022/04/04 11:14:14;;;;;;;;;19.67;18.33;;;;;;;;5026562;28;45594;-67
2022/04/04 11:17:03;;;;;;;;;14.67;14.00;;;;;;;;5035529;28;46654;-68
2022/04/04 11:19:28;;;;;;;;;13.33;12.00;;;;;;;;5010244;28;45526;-67
2022/04/04 11:21:54;;;;;;;;;19.33;13.00;;;;;;;;5015808;28;45401;-68
2022/04/04 11:24:19;;;;;;;;;14.00;13.00;;;;;;;;5015819;28;45549;-67
2022/04/04 11:26:46;;;;;;;;;12.33;12.33;;;;;;;;5015584;28;46471;-67
2022/04/04 11:29:15;;;;;;;;;12.00;12.00;;;;;;;;5020881;28;45534;-67
2022/04/04 11:31:47;;;;;;;;;11.67;11.67;;;;;;;;5015482;28;45504;-67
2022/04/04 11:34:13;;;;;;;;;14.00;13.00;;;;;;;;5015716;28;45304;-67
2022/04/04 11:36:39;;;;;;;;;8.00;7.67;;;;;;;;5014968;28;46066;-67
2022/04/04 11:39:08;;;;;;;;;10.00;9.67;;;;;;;;5015293;28;45409;-68
2022/04/04 11:41:36;;;;;;;;;8.67;8.33;;;;;;;;4998325;28;45914;-67
2022/04/04 11:44:02;;;;;;;;;9.00;6.67;;;;;;;;5015526;28;45432;-67
2022/04/04 11:46:27;;;;;;;;;12.00;12.00;;;;;;;;5014173;28;46872;-68
2022/04/04 11:48:56;;;;;;;;;12.00;10.67;;;;;;;;5040349;28;45408;-68
2022/04/04 11:51:25;;;;;;;;;11.00;9.33;;;;;;;;5057397;28;45825;-68
2022/04/04 11:53:59;;;;;;;;;11.67;9.33;;;;;;;;5081614;27;45622;-67
2022/04/04 11:56:26;;;;;;;;;13.33;10.33;;;;;;;;5077586;28;47425;-68
2022/04/04 11:58:54;;;;;;;;;12.33;9.67;;;;;;;;5077371;28;45602;-68
2022/04/04 12:01:20;;;;;;;;;13.33;11.00;;;;;;;;5077757;28;45411;-68
2022/04/04 12:03:49;;;;;;;;;24.67;20.67;;;;;;;;5059344;28;45810;-68
2022/04/04 12:06:15;;;;;;;;;22.67;20.67;;;;;;;;5077274;28;46504;-68
2022/04/04 12:08:42;;;;;;;;;22.67;20.67;;;;;;;;5077503;28;45308;-67
2022/04/04 12:11:09;;;;;;;;;20.00;18.00;;;;;;;;5077552;28;45300;-68
2022/04/04 12:13:46;;;;;;;;;24.00;21.00;;;;;;;;5077454;28;45335;-68
2022/04/04 12:16:12;;;;;;;;;21.33;14.67;;;;;;;;5077234;28;45852;-68
2022/04/04 12:18:37;;;;;;;;;23.67;20.67;;;;;;;;5076332;28;45616;-68
2022/04/04 12:21:03;;;;;;;;;11.00;11.00;;;;;;;;5077652;28;45395;-68
2022/04/04 12:26:13;;;;;;;;;19.67;15.00;;;;;;;;5092245;27;45470;-68
2022/04/04 12:28:39;;;;;;;;;12.00;11.33;;;;;;;;5076985;27;45383;-67
2022/04/04 12:31:10;;;;;;;;;14.67;14.67;;;;;;;;5075563;28;45490;-68
2022/04/04 12:33:35;;;;;;;;;17.67;14.00;;;;;;;;5077291;28;45327;-68
2022/04/04 12:36:01;;;;;;;;;13.67;13.00;;;;;;;;5076828;27;46441;-68
2022/04/04 12:38:26;;;;;;;;;16.33;14.00;;;;;;;;5084441;27;45535;-67
2022/04/04 12:41:04;;;;;;;;;15.33;13.33;;;;;;;;5076371;28;45460;-68
2022/04/04 12:43:30;;;;;;;;;12.33;11.00;;;;;;;;5076485;28;45352;-67
2022/04/04 12:45:55;;;;;;;;;13.67;12.00;;;;;;;;5076660;28;46770;-68
2022/04/04 12:48:21;;;;;;;;;16.00;11.00;;;;;;;;5076347;28;45645;-68
2022/04/04 12:50:47;;;;;;;;;12.67;11.00;;;;;;;;5076388;28;45407;-68
2022/04/04 12:53:14;;;;;;;;;13.67;11.33;;;;;;;;5056876;28;45548;-68
2022/04/04 12:55:40;;;;;;;;;13.33;12.00;;;;;;;;5074354;27;46506;-67
2022/04/04 12:58:18;;;;;;;;;13.00;11.00;;;;;;;;5089875;27;45649;-68
2022/04/04 13:00:44;;;;;;;;;15.00;10.00;;;;;;;;5076803;28;45411;-67
2022/04/04 13:03:28;;;;;;;;;17.33;12.33;;;;;;;;5079690;27;45569;-67
2022/04/04 13:05:57;;;;;;;;;11.33;11.33;;;;;;;;5076683;28;46387;-68
2022/04/04 13:08:27;;;;;;;;;11.00;8.33;;;;;;;;5075446;27;45383;-68
2022/04/04 13:11:02;;;;;;;;;8.33;7.00;;;;;;;;5076673;28;45462;-68
2022/04/04 13:13:27;;;;;;;;;9.00;9.00;;;;;;;;5077038;27;45642;-68
2022/04/04 13:15:52;;;;;;;;;9.00;8.67;;;;;;;;5097169;27;46090;-68
2022/04/04 13:18:18;;;;;;;;;10.75;10.00;;;;;;;;5096967;27;45470;-68
2022/04/04 13:20:43;;;;;;;;;12.00;12.00;;;;;;;;5078986;27;45435;-68
2022/04/04 13:23:08;;;;;;;;;8.67;8.67;;;;;;;;5076621;27;45350;-68
2022/04/04 13:25:33;;;;;;;;;6.67;6.67;;;;;;;;5078769;28;45535;-68
2022/04/04 13:27:58;;;;;;;;;8.67;7.67;;;;;;;;5083708;27;45431;-68
2022/04/04 13:30:24;;;;;;;;;11.67;8.33;;;;;;;;5100635;27;45380;-68
2022/04/04 13:32:49;;;;;;;;;9.50;9.50;;;;;;;;5100911;27;45595;-68
2022/04/04 13:35:14;;;;;;;;;9.25;7.50;;;;;;;;5099978;27;46351;-68
2022/04/04 13:37:40;;;;;;;;;12.33;9.00;;;;;;;;5080335;27;45363;-68
2022/04/04 13:40:06;;;;;;;;;8.00;8.00;;;;;;;;5083375;27;45532;-68
2022/04/04 13:42:31;;;;;;;;;12.00;10.00;;;;;;;;5100620;27;45408;-68
2022/04/04 13:44:56;;;;;;;;;9.33;7.33;;;;;;;;5100511;27;46294;-67
2022/04/04 13:47:21;;;;;;;;;11.33;8.33;;;;;;;;5099439;27;45419;-68
2022/04/04 13:49:47;;;;;;;;;7.00;7.00;;;;;;;;5100148;27;45415;-68
2022/04/04 13:52:13;;;;;;;;;4.00;2.50;;;;;;;;5085009;27;45340;-68
2022/04/04 13:54:42;;;;;;;;;11.33;8.00;;;;;;;;5080492;27;45633;-69
2022/04/04 13:57:07;;;;;;;;;8.33;7.00;;;;;;;;5083366;27;45320;-68
2022/04/04 13:59:34;;;;;;;;;7.00;6.00;;;;;;;;5079784;28;45517;-68
2022/04/04 14:01:59;;;;;;;;;7.50;5.25;;;;;;;;5079913;28;45561;-68
2022/04/04 14:04:25;;;;;;;;;6.00;5.25;;;;;;;;5079492;28;46486;-69
2022/04/04 14:06:50;;;;;;;;;7.00;7.00;;;;;;;;5079330;28;45394;-68
2022/04/04 14:09:17;;;;;;;;;8.75;7.00;;;;;;;;5079233;28;45427;-68
2022/04/04 14:11:42;;;;;;;;;8.33;8.33;;;;;;;;5094937;27;45445;-68
2022/04/04 14:14:10;;;;;;;;;4.00;4.00;;;;;;;;5099823;27;47378;-68
2022/04/04 14:16:37;;;;;;;;;8.50;5.75;;;;;;;;5093451;27;45496;-68
2022/04/04 14:19:03;;;;;;;;;5.67;5.67;;;;;;;;5078921;28;45482;-68
2022/04/04 14:21:28;;;;;;;;;6.75;4.00;;;;;;;;5085498;27;45554;-69
2022/04/04 14:23:53;;;;;;;;;13.00;11.00;;;;;;;;5096769;27;46458;-69
2022/04/04 14:26:19;;;;;;;;;6.50;5.00;;;;;;;;5084057;27;45431;-68